Latest Weather Observations for Hobart

IDT60901

Issued at 12:51 pm EDT Monday 30 November 2020 (issued every 10 minutes, with the page automatically refreshed every 10 minutes)

About weather observations | Map of Hobart area stations | Latest observations for Hobart area | Other Formats
Station Details ID: 094029 Name: HOBART (ELLERSLIE ROAD) Lat: -42.89 Lon: 147.33 Height: 50.5 m
Data from the previous 72 hours. | See also: Recent months at Hobart
Date/Time
EDT
Temp
°C
App
Temp
°C
Dew
Point
°C
Rel
Hum
%
Delta-T
°C
Wind Press
QNH
hPa
Press
MSL
hPa
Rain since
9am
mm
Dir  Spd
km/h
Gust
km/h
Spd
kts
Gust
kts
30/12:30pm 19.1 14.7 7.2 46 6.0 ESE 20 24 11 13 1013.9 1013.8 0.0
30/12:00pm 18.1 14.4 6.3 46 5.8 E 15 20 8 11 1014.1 1014.1 0.0
30/11:30am 20.3 16.1 3.9 34 7.9 NNE 15 24 8 13 1014.6 1014.6 0.0
30/11:00am 19.0 14.3 5.1 40 6.8 N 19 28 10 15 1015.1 1015.1 0.0
30/10:30am 18.6 14.8 4.0 38 6.9 N 13 24 7 13 1015.4 1015.4 0.0
30/10:00am 17.6 14.4 4.9 43 6.1 NNE 11 19 6 10 1015.6 1015.6 0.0
30/09:30am 16.8 14.1 5.7 48 5.4 NNE 9 15 5 8 1015.6 1015.6 0.0
30/09:00am 16.2 13.2 6.1 51 4.9 NNW 11 17 6 9 1015.4 1015.4 0.0
30/08:30am 14.9 11.5 5.7 54 4.4 NNW 13 20 7 11 1015.4 1015.4 0.0
30/08:00am 14.3 11.3 5.9 57 4.0 NW 11 15 6 8 1015.3 1015.3 0.0
30/07:30am 13.7 12.4 6.1 60 3.6 N 2 9 1 5 1014.9 1014.9 0.0
30/07:00am 12.8 11.7 5.2 60 3.5 CALM 0 0 0 0 1014.8 1014.8 0.0
30/06:30am 10.9 8.7 5.2 68 2.6 W 6 7 3 4 1014.8 1014.8 0.0
30/06:00am 9.7 6.8 4.7 71 2.2 WSW 9 13 5 7 1014.5 1014.5 0.0
30/05:30am 9.0 5.3 4.4 73 2.0 SW 13 17 7 9 1014.0 1014.0 0.0
30/05:00am 9.5 5.8 4.3 70 2.3 WSW 13 19 7 10 1013.5 1013.4 0.0
30/04:30am 9.9 7.0 4.5 69 2.4 W 9 15 5 8 1013.5 1013.4 0.0
30/04:00am 10.8 7.3 5.3 69 2.5 NW 13 20 7 11 1013.3 1013.2 0.0
30/03:30am 11.1 6.8 5.4 68 2.6 NW 17 30 9 16 1013.2 1013.1 0.0
30/03:00am 9.3 5.6 4.5 72 2.1 W 13 17 7 9 1013.3 1013.2 0.0
30/02:30am 9.7 6.0 4.5 70 2.3 WSW 13 15 7 8 1013.5 1013.4 0.0
30/02:00am 10.7 8.3 4.4 65 2.8 NNW 6 9 3 5 1013.4 1013.3 0.0
30/01:30am 11.0 8.5 4.5 64 2.9 SW 7 9 4 5 1013.5 1013.4 0.0
30/01:00am 11.4 8.0 4.2 61 3.2 NNW 11 15 6 8 1013.7 1013.6 0.0
30/12:30am 11.3 8.9 4.5 63 3.1 WNW 6 13 3 7 1013.8 1013.7 0.0
30/12:00am 12.0 9.6 4.5 60 3.4 SW 6 9 3 5 1013.4 1013.3 0.0
 
Date/Time
EDT
Temp
°C
App
Temp
°C
Dew
Point
°C
Rel
Hum
%
Delta-T
°C
Wind Press
QNH
hPa
Press
MSL
hPa
Rain since
9am
mm
Dir  Spd
km/h
Gust
km/h
Spd
kts
Gust
kts
29/11:30pm 13.3 9.6 4.5 55 4.0 N 13 19 7 10 1013.0 1012.9 0.0
29/11:00pm 13.0 8.1 4.2 55 4.0 WSW 19 28 10 15 1012.6 1012.5 0.0
29/10:30pm 13.6 8.6 4.5 54 4.2 S 20 32 11 17 1012.5 1012.4 0.0
29/10:00pm 13.7 9.7 5.1 56 4.0 SSW 15 24 8 13 1012.0 1011.9 0.0
29/09:30pm 14.2 9.6 5.6 56 4.1 SSW 19 30 10 16 1011.3 1011.2 0.0
29/09:00pm 15.0 11.3 4.7 50 4.8 SSW 13 28 7 15 1010.8 1010.7 0.0
29/08:30pm 15.3 11.6 4.7 49 5.0 WSW 13 30 7 16 1009.9 1009.9 0.0
29/08:00pm 15.8 11.4 4.8 48 5.2 SSW 17 24 9 13 1009.1 1009.1 0.0
29/07:30pm 16.4 12.0 4.8 46 5.5 SW 17 28 9 15 1008.6 1008.6 0.0
29/07:00pm 17.2 13.1 4.2 42 6.1 SW 15 24 8 13 1008.3 1008.3 0.0
29/06:30pm 18.1 14.8 4.3 40 6.6 SW 11 30 6 16 1008.0 1008.0 0.0
29/06:00pm 18.7 13.2 4.1 38 7.0 W 22 39 12 21 1007.4 1007.4 0.0
29/05:30pm 18.5 12.8 5.0 41 6.5 WSW 24 52 13 28 1006.7 1006.7 0.0
29/05:00pm 18.9 11.6 4.3 38 7.0 WSW 32 61 17 33 1006.2 1006.2 0.0
29/04:31pm 19.9 13.2 5.5 39 7.1 WSW 30 48 16 26 1005.6 1005.6 0.0
29/04:30pm 19.6 12.8 4.9 38 7.1 WSW 30 48 16 26 1005.6 1005.6 0.0
29/04:29pm 19.5 12.6 4.8 38 7.1 WSW 30 48 16 26 1005.6 1005.6 0.0
29/04:26pm 19.2 13.4 4.6 38 7.0 WSW 24 48 13 26 1005.5 1005.5 0.0
29/04:23pm 19.7 13.9 4.6 37 7.3 WSW 24 48 13 26 1005.3 1005.3 0.0
29/04:00pm 19.0 14.2 5.8 42 6.5 SW 20 37 11 20 1005.0 1005.0 0.0
29/03:36pm 19.2 13.6 5.3 40 6.8 WSW 24 50 13 27 1004.7 1004.7 0.0
29/03:30pm 19.6 14.0 5.6 40 6.9 WSW 24 39 13 21 1004.6 1004.6 0.0
29/03:00pm 17.7 12.9 5.6 45 5.9 SW 20 35 11 19 1003.9 1003.9 0.0
29/02:38pm 17.9 11.6 5.5 44 6.0 WSW 28 46 15 25 1003.5 1003.5 0.0
29/02:30pm 18.6 13.8 5.5 42 6.4 WSW 20 41 11 22 1003.2 1003.2 0.0
29/02:00pm 20.2 15.4 5.4 38 7.3 WSW 20 35 11 19 1002.6 1002.6 0.0
29/01:30pm 19.3 12.2 5.4 40 6.8 SW 32 50 17 27 1002.2 1002.2 0.0
29/01:00pm 19.5 13.2 5.9 41 6.8 SW 28 46 15 25 1001.6 1001.6 0.0
29/12:40pm 18.1 11.7 5.3 43 6.2 SSW 28 46 15 25 1001.5 1001.5 0.0
29/12:30pm 17.8 11.6 4.4 41 6.4 SSW 26 39 14 21 1001.3 1001.3 0.0
29/12:00pm 17.4 11.4 5.4 45 5.8 S 26 44 14 24 1000.8 1000.8 0.0
29/11:30am 16.7 12.6 7.9 56 4.5 SW 19 32 10 17 1001.0 1001.0 0.0
29/11:00am 15.6 12.2 9.3 66 3.3 S 17 26 9 14 1000.8 1000.8 0.0
29/10:30am 16.2 13.0 9.8 66 3.4 WSW 17 28 9 15 1001.1 1001.1 0.0
29/10:00am 14.9 13.4 10.7 76 2.2 S 9 19 5 10 1001.0 1001.0 0.0
29/09:30am 14.2 11.2 10.6 79 1.9 SE 17 22 9 12 1000.9 1000.9 0.0
29/09:00am 13.9 10.9 10.7 81 1.7 SE 17 22 9 12 1000.3 1000.3 0.2
29/08:30am 13.6 11.5 11.0 84 1.4 SSE 13 20 7 11 1000.3 1000.3 0.2
29/08:00am 12.8 11.4 10.9 88 1.0 SSE 9 15 5 8 1000.3 1000.3 0.2
29/07:30am 12.5 9.9 10.7 89 0.9 S 15 22 8 12 1000.2 1000.2 0.0
29/07:00am 12.5 9.5 10.7 89 0.9 S 17 22 9 12 1000.2 1000.2 0.0
29/06:30am 12.9 10.8 9.9 82 1.5 S 11 17 6 9 1000.1 1000.1 0.0
29/06:00am 12.8 11.2 10.2 84 1.4 SE 9 17 5 9 999.9 999.9 0.0
29/05:30am 13.0 11.0 10.2 83 1.4 S 11 17 6 9 999.7 999.7 0.0
29/05:00am 13.5 10.7 10.1 80 1.8 SSW 15 22 8 12 999.5 999.5 0.0
29/04:30am 13.6 10.0 10.0 79 1.9 SSW 19 32 10 17 999.5 999.5 0.0
29/04:00am 13.7 11.4 10.3 80 1.8 SSW 13 22 7 12 999.9 999.9 0.0
29/03:30am 13.8 11.5 10.4 80 1.8 S 13 17 7 9 1000.5 1000.5 0.0
29/03:00am 13.9 11.6 10.5 80 1.8 SSW 13 19 7 10 1001.2 1001.2 0.0
29/02:30am 13.8 11.5 10.6 81 1.7 SSW 13 19 7 10 1001.7 1001.7 0.0
29/02:00am 13.8 12.0 10.8 82 1.6 SSW 11 19 6 10 1002.5 1002.5 0.0
29/01:30am 13.9 12.1 10.9 82 1.6 SSW 11 15 6 8 1002.6 1002.6 0.0
29/01:00am 14.0 11.8 10.8 81 1.7 SSW 13 19 7 10 1003.0 1003.0 0.0
29/12:30am 14.1 11.5 10.7 80 1.8 SSW 15 19 8 10 1003.0 1003.0 0.0
29/12:00am 14.5 12.2 10.5 77 2.1 SSW 13 17 7 9 1003.1 1003.1 0.0
 
Date/Time
EDT
Temp
°C
App
Temp
°C
Dew
Point
°C
Rel
Hum
%
Delta-T
°C
Wind Press
QNH
hPa
Press
MSL
hPa
Rain since
9am
mm
Dir  Spd
km/h
Gust
km/h
Spd
kts
Gust
kts
28/11:30pm 14.5 11.5 10.5 77 2.1 S 17 20 9 11 1003.4 1003.4 0.0
28/11:00pm 14.8 12.5 10.6 76 2.2 SSE 13 19 7 10 1003.9 1003.9 0.0
28/10:30pm 14.7 12.4 10.5 76 2.2 SSE 13 17 7 9 1004.2 1004.2 0.0
28/10:00pm 14.9 13.1 10.7 76 2.2 S 11 17 6 9 1004.6 1004.6 0.0
28/09:30pm 14.9 12.3 10.7 76 2.2 SSE 15 20 8 11 1004.7 1004.7 0.0
28/09:00pm 15.0 12.8 10.8 76 2.2 S 13 17 7 9 1004.5 1004.5 0.0
28/08:30pm 15.2 13.0 10.8 75 2.3 SSW 13 19 7 10 1004.2 1004.2 0.0
28/08:00pm 15.6 13.3 10.6 72 2.7 SSW 13 19 7 10 1004.1 1004.1 0.0
28/07:30pm 16.1 13.9 10.8 71 2.8 S 13 20 7 11 1003.8 1003.8 0.0
28/07:00pm 16.4 13.8 10.7 69 3.1 SSW 15 20 8 11 1003.4 1003.4 0.0
28/06:30pm 17.0 14.8 10.8 67 3.3 SSE 13 17 7 9 1003.4 1003.4 0.0
28/06:00pm 17.0 13.5 10.8 67 3.3 SSE 20 26 11 14 1003.2 1003.2 0.0
28/05:30pm 17.2 13.2 10.6 65 3.5 SE 22 30 12 16 1003.3 1003.3 0.0
28/05:00pm 17.9 13.4 10.0 60 4.2 SE 24 32 13 17 1003.5 1003.5 0.0
28/04:30pm 18.3 12.8 9.1 55 4.8 SE 28 37 15 20 1003.4 1003.4 0.0
28/04:00pm 18.7 14.0 9.2 54 5.0 SE 24 32 13 17 1003.5 1003.5 0.0
28/03:30pm 20.1 14.4 8.4 47 6.1 SE 28 39 15 21 1003.3 1003.3 0.0
28/03:25pm 20.3 16.0 8.0 45 6.4 SE 20 39 11 21 1003.3 1003.3 0.0
28/03:00pm 21.6 18.0 5.1 34 8.2 ENE 13 19 7 10 1003.2 1003.2 0.0
28/02:30pm 22.0 18.1 5.4 34 8.3 ESE 15 20 8 11 1003.4 1003.4 0.0
28/02:00pm 21.9 18.6 6.6 37 7.8 ESE 13 20 7 11 1003.8 1003.8 0.0
28/01:30pm 20.0 15.9 6.4 41 6.8 ESE 17 28 9 15 1004.5 1004.5 0.0
28/01:00pm 21.0 17.7 6.5 39 7.4 E 13 19 7 10 1004.5 1004.5 0.0
28/12:30pm 20.6 16.8 7.6 43 6.7 ESE 17 20 9 11 1004.9 1004.9 0.0
28/12:00pm 18.8 15.2 6.9 46 6.0 ESE 15 22 8 12 1005.2 1005.2 0.0
28/11:30am 18.9 15.5 5.7 42 6.5 ESE 13 22 7 12 1004.8 1004.8 0.0
28/11:00am 19.6 15.9 4.5 37 7.3 NW 13 20 7 11 1004.1 1004.1 0.0
28/10:30am 19.8 15.2 5.8 40 6.9 NNW 19 32 10 17 1004.2 1004.2 0.0
28/10:00am 19.0 13.4 5.5 41 6.6 NNW 24 35 13 19 1004.7 1004.7 0.0
28/09:30am 18.5 12.5 5.4 42 6.4 NNW 26 37 14 20 1005.0 1005.0 0.0
28/09:00am 17.5 11.9 5.4 45 5.9 NW 24 35 13 19 1005.0 1005.0 0.0
28/08:30am 16.8 11.3 5.7 48 5.4 NNW 24 33 13 18 1004.5 1004.5 0.0
28/08:00am 15.8 10.0 6.3 53 4.6 NW 26 39 14 21 1004.1 1004.1 0.0
28/07:30am 15.2 11.2 6.5 56 4.2 WNW 17 26 9 14 1003.7 1003.7 0.0
28/07:00am 14.7 11.4 6.5 58 4.0 NNW 13 20 7 11 1003.6 1003.6 0.0
28/06:30am 13.3 11.5 7.3 67 2.9 NW 6 7 3 4 1003.3 1003.3 0.0
28/06:00am 12.9 10.3 7.6 70 2.6 WSW 11 19 6 10 1002.9 1002.9 0.0
28/05:30am 13.6 11.6 6.9 64 3.2 W 7 11 4 6 1002.6 1002.6 0.0
28/05:00am 14.1 11.7 6.9 62 3.5 SW 9 13 5 7 1002.7 1002.7 0.0
28/04:30am 14.1 11.6 8.3 68 2.9 WNW 11 13 6 7 1003.4 1003.4 0.0
28/04:00am 14.7 12.2 8.0 64 3.4 WSW 11 20 6 11 1003.7 1003.7 0.0
28/03:30am 14.2 13.8 9.6 74 2.4 WSW 2 9 1 5 1004.2 1004.2 0.0
28/03:00am 14.2 14.0 10.4 78 2.0 S 2 7 1 4 1004.3 1004.3 0.0
28/02:30am 14.1 13.0 10.7 80 1.8 WSW 7 11 4 6 1004.4 1004.4 0.0
28/02:00am 14.1 12.8 11.1 82 1.6 WSW 9 13 5 7 1004.3 1004.3 0.0
28/01:30am 14.0 12.7 11.2 83 1.5 E 9 11 5 6 1003.8 1003.8 0.0
28/01:00am 13.7 12.9 11.2 85 1.3 N 6 11 3 6 1004.5 1004.5 0.0
28/12:30am 13.6 12.8 11.0 84 1.4 W 6 9 3 5 1004.3 1004.3 0.0
28/12:00am 13.9 13.1 11.1 83 1.5 NE 6 9 3 5 1004.5 1004.5 0.0
 
Date/Time
EDT
Temp
°C
App
Temp
°C
Dew
Point
°C
Rel
Hum
%
Delta-T
°C
Wind Press
QNH
hPa
Press
MSL
hPa
Rain since
9am
mm
Dir  Spd
km/h
Gust
km/h
Spd
kts
Gust
kts
27/11:30pm 14.0 13.1 11.3 84 1.4 NNE 7 11 4 6 1004.6 1004.6 0.0
27/11:00pm 14.0 13.2 11.0 82 1.6 WSW 6 9 3 5 1005.0 1005.0 0.0
27/10:30pm 14.0 13.2 11.0 82 1.6 SW 6 7 3 4 1004.6 1004.6 0.0
27/10:00pm 14.2 14.3 11.4 83 1.5 E 2 9 1 5 1004.4 1004.4 0.0
27/09:30pm 14.3 13.0 11.3 82 1.6 ESE 9 13 5 7 1004.6 1004.6 0.0
27/09:00pm 14.4 13.1 11.2 81 1.7 SSE 9 13 5 7 1004.5 1004.5 0.0
27/08:30pm 14.6 12.1 11.2 80 1.8 SSE 15 20 8 11 1004.4 1004.4 0.0
27/08:00pm 15.0 13.0 11.4 79 1.9 SSE 13 20 7 11 1004.5 1004.5 0.0
27/07:30pm 15.1 12.3 11.3 78 2.0 SE 17 28 9 15 1004.2 1004.2 0.0
27/07:00pm 15.4 12.2 11.2 76 2.3 SSE 19 32 10 17 1004.2 1004.2 0.0
27/06:30pm 16.2 12.8 11.2 72 2.7 SSE 20 30 11 16 1004.0 1004.0 0.0
27/06:00pm 19.7 16.8 9.6 52 5.4 SSE 15 32 8 17 1003.3 1003.3 0.0
27/05:30pm 24.0 17.1 6.3 32 9.1 NNW 32 50 17 27 1002.8 1002.8 0.0
27/05:00pm 24.6 17.1 6.4 31 9.5 NNW 35 54 19 29 1002.9 1002.9 0.0
27/04:30pm 25.3 17.5 6.5 30 9.8 NNW 37 65 20 35 1003.3 1003.3 0.0
27/04:00pm 24.9 17.2 5.2 28 10.0 N 35 56 19 30 1003.7 1003.7 0.0
27/03:30pm 25.5 18.0 4.6 26 10.5 NNW 33 54 18 29 1004.5 1004.5 0.0
27/03:00pm 26.2 19.6 4.1 24 11.1 NNW 28 46 15 25 1005.2 1005.2 0.0
27/02:32pm 25.3 18.0 5.5 28 10.1 NNW 33 54 18 29 1005.7 1005.7 0.0
27/02:30pm 25.5 18.3 5.7 28 10.2 NNW 33 50 18 27 1005.8 1005.8 0.0
27/02:00pm 24.7 16.4 6.0 30 9.6 N 39 57 21 31 1006.1 1006.1 0.0
27/01:30pm 24.7 18.1 6.0 30 9.6 N 30 48 16 26 1006.8 1006.8 0.0
27/01:01pm 24.0 16.1 6.3 32 9.1 N 37 57 20 31 1007.6 1007.6 0.0
27/01:00pm 23.9 16.0 6.2 32 9.1 N 37 54 20 29 1007.6 1007.6 0.0

Latest Capital City Observations: Canberra | Sydney | Melbourne | Brisbane | Adelaide | Perth | Hobart | Darwin

Other formats

Comma delimited format used in spreadsheet applications
http://www.bom.gov.au/fwo/IDT60901/IDT60901.94970.axf

JavaScript Object Notation format (JSON) in row-major order
http://www.bom.gov.au/fwo/IDT60901/IDT60901.94970.json

Data quality

Most of these data are generated automatically and are frequently updated. Quality checks on data are not normally performed. It is possible for incorrect values to appear. Refer to information at About Latest Weather Observations and please check the disclaimer before using these data.